sensor_id;sensor_type;location;lat;lon;timestamp;P1;durP1;ratioP1;P2;durP2;ratioP2
39322;SDS011;25036;53.638;10.134;2023-11-19T00:01:00;2.93;;;2.63;;
39322;SDS011;25036;53.638;10.134;2023-11-19T00:02:00;3.35;;;2.60;;
39322;SDS011;25036;53.638;10.134;2023-11-19T00:03:00;3.33;;;2.70;;
39322;SDS011;25036;53.638;10.134;2023-11-19T00:04:01;2.83;;;2.53;;
39322;SDS011;25036;53.638;10.134;2023-11-19T00:05:01;2.78;;;2.45;;
39322;SDS011;25036;53.638;10.134;2023-11-19T00:06:01;2.60;;;2.40;;
39322;SDS011;25036;53.638;10.134;2023-11-19T00:07:03;2.83;;;2.58;;
39322;SDS011;25036;53.638;10.134;2023-11-19T00:08:04;2.95;;;2.50;;
39322;SDS011;25036;53.638;10.134;2023-11-19T00:09:05;3.10;;;2.80;;
39322;SDS011;25036;53.638;10.134;2023-11-19T00:10:07;2.83;;;2.20;;
39322;SDS011;25036;53.638;10.134;2023-11-19T00:11:10;2.97;;;2.58;;
39322;SDS011;25036;53.638;10.134;2023-11-19T00:12:11;2.80;;;2.22;;
39322;SDS011;25036;53.638;10.134;2023-11-19T00:13:11;3.37;;;2.40;;
39322;SDS011;25036;53.638;10.134;2023-11-19T00:14:12;3.15;;;2.40;;
39322;SDS011;25036;53.638;10.134;2023-11-19T00:15:13;2.80;;;2.27;;
39322;SDS011;25036;53.638;10.134;2023-11-19T00:16:13;3.20;;;2.50;;
39322;SDS011;25036;53.638;10.134;2023-11-19T00:17:13;2.27;;;2.07;;
39322;SDS011;25036;53.638;10.134;2023-11-19T00:18:13;2.90;;;2.40;;
39322;SDS011;25036;53.638;10.134;2023-11-19T00:19:14;2.40;;;1.80;;
39322;SDS011;25036;53.638;10.134;2023-11-19T00:20:14;1.97;;;1.80;;
39322;SDS011;25036;53.638;10.134;2023-11-19T00:21:15;2.20;;;2.00;;
39322;SDS011;25036;53.638;10.134;2023-11-19T00:22:15;2.23;;;1.83;;
39322;SDS011;25036;53.638;10.134;2023-11-19T00:23:15;2.13;;;1.83;;
39322;SDS011;25036;53.638;10.134;2023-11-19T00:24:15;1.90;;;1.70;;
39322;SDS011;25036;53.638;10.134;2023-11-19T00:25:17;2.00;;;1.80;;
39322;SDS011;25036;53.638;10.134;2023-11-19T00:26:17;1.70;;;1.60;;
39322;SDS011;25036;53.638;10.134;2023-11-19T00:27:17;1.70;;;1.60;;
39322;SDS011;25036;53.638;10.134;2023-11-19T00:28:17;1.70;;;1.60;;
39322;SDS011;25036;53.638;10.134;2023-11-19T00:29:17;1.60;;;1.40;;
39322;SDS011;25036;53.638;10.134;2023-11-19T00:30:20;2.47;;;1.75;;
39322;SDS011;25036;53.638;10.134;2023-11-19T00:31:20;2.73;;;1.80;;
39322;SDS011;25036;53.638;10.134;2023-11-19T00:32:20;1.73;;;1.63;;
39322;SDS011;25036;53.638;10.134;2023-11-19T00:33:20;1.60;;;1.47;;
39322;SDS011;25036;53.638;10.134;2023-11-19T00:34:20;1.93;;;1.60;;
39322;SDS011;25036;53.638;10.134;2023-11-19T00:35:22;1.80;;;1.60;;
39322;SDS011;25036;53.638;10.134;2023-11-19T00:36:22;1.63;;;1.53;;
39322;SDS011;25036;53.638;10.134;2023-11-19T00:37:23;1.50;;;1.38;;
39322;SDS011;25036;53.638;10.134;2023-11-19T00:38:24;2.10;;;1.40;;
39322;SDS011;25036;53.638;10.134;2023-11-19T00:39:24;1.60;;;1.50;;
39322;SDS011;25036;53.638;10.134;2023-11-19T00:40:24;1.40;;;1.30;;
39322;SDS011;25036;53.638;10.134;2023-11-19T00:41:24;1.60;;;1.50;;
39322;SDS011;25036;53.638;10.134;2023-11-19T00:42:25;1.90;;;1.45;;
39322;SDS011;25036;53.638;10.134;2023-11-19T00:43:26;2.35;;;1.70;;
39322;SDS011;25036;53.638;10.134;2023-11-19T00:44:27;2.28;;;1.65;;
39322;SDS011;25036;53.638;10.134;2023-11-19T00:45:27;1.83;;;1.60;;
39322;SDS011;25036;53.638;10.134;2023-11-19T00:46:28;1.52;;;1.02;;
39322;SDS011;25036;53.638;10.134;2023-11-19T00:47:28;1.37;;;1.27;;
39322;SDS011;25036;53.638;10.134;2023-11-19T00:48:28;1.57;;;1.40;;
39322;SDS011;25036;53.638;10.134;2023-11-19T00:49:28;1.30;;;1.20;;
39322;SDS011;25036;53.638;10.134;2023-11-19T00:50:28;1.30;;;1.20;;
39322;SDS011;25036;53.638;10.134;2023-11-19T00:51:29;1.40;;;1.30;;
39322;SDS011;25036;53.638;10.134;2023-11-19T00:52:31;1.42;;;1.33;;
39322;SDS011;25036;53.638;10.134;2023-11-19T00:53:31;1.47;;;1.20;;
39322;SDS011;25036;53.638;10.134;2023-11-19T00:54:32;1.55;;;1.00;;
39322;SDS011;25036;53.638;10.134;2023-11-19T00:55:32;2.17;;;1.00;;
39322;SDS011;25036;53.638;10.134;2023-11-19T00:56:32;1.13;;;1.00;;
39322;SDS011;25036;53.638;10.134;2023-11-19T00:57:32;1.00;;;0.87;;
39322;SDS011;25036;53.638;10.134;2023-11-19T00:58:32;1.00;;;1.00;;
39322;SDS011;25036;53.638;10.134;2023-11-19T00:59:33;1.13;;;1.02;;
39322;SDS011;25036;53.638;10.134;2023-11-19T01:00:33;1.40;;;1.00;;
39322;SDS011;25036;53.638;10.134;2023-11-19T01:01:34;1.60;;;0.93;;
39322;SDS011;25036;53.638;10.134;2023-11-19T01:02:35;0.80;;;0.70;;
39322;SDS011;25036;53.638;10.134;2023-11-19T01:03:35;1.10;;;1.00;;
39322;SDS011;25036;53.638;10.134;2023-11-19T01:04:35;1.60;;;1.00;;
39322;SDS011;25036;53.638;10.134;2023-11-19T01:05:35;0.98;;;0.90;;
39322;SDS011;25036;53.638;10.134;2023-11-19T01:06:36;0.80;;;0.80;;
39322;SDS011;25036;53.638;10.134;2023-11-19T01:07:36;0.95;;;0.90;;
39322;SDS011;25036;53.638;10.134;2023-11-19T01:08:36;0.90;;;0.70;;
39322;SDS011;25036;53.638;10.134;2023-11-19T01:09:36;0.50;;;0.50;;
39322;SDS011;25036;53.638;10.134;2023-11-19T01:10:36;1.52;;;0.73;;
39322;SDS011;25036;53.638;10.134;2023-11-19T01:11:37;1.02;;;0.60;;
39322;SDS011;25036;53.638;10.134;2023-11-19T01:12:37;1.03;;;0.70;;
39322;SDS011;25036;53.638;10.134;2023-11-19T01:13:37;1.08;;;0.60;;
39322;SDS011;25036;53.638;10.134;2023-11-19T01:14:37;0.60;;;0.60;;
39322;SDS011;25036;53.638;10.134;2023-11-19T01:15:37;0.70;;;0.70;;
39322;SDS011;25036;53.638;10.134;2023-11-19T01:16:38;0.95;;;0.70;;
39322;SDS011;25036;53.638;10.134;2023-11-19T01:17:38;0.80;;;0.80;;
39322;SDS011;25036;53.638;10.134;2023-11-19T01:18:38;0.60;;;0.60;;
39322;SDS011;25036;53.638;10.134;2023-11-19T01:19:38;0.60;;;0.60;;
39322;SDS011;25036;53.638;10.134;2023-11-19T01:20:39;0.70;;;0.70;;
39322;SDS011;25036;53.638;10.134;2023-11-19T01:21:39;0.60;;;0.60;;
39322;SDS011;25036;53.638;10.134;2023-11-19T01:22:39;1.07;;;0.60;;
39322;SDS011;25036;53.638;10.134;2023-11-19T01:23:40;0.70;;;0.70;;
39322;SDS011;25036;53.638;10.134;2023-11-19T01:24:42;1.00;;;0.60;;
39322;SDS011;25036;53.638;10.134;2023-11-19T01:25:42;0.53;;;0.53;;
39322;SDS011;25036;53.638;10.134;2023-11-19T01:26:43;0.50;;;0.50;;
39322;SDS011;25036;53.638;10.134;2023-11-19T01:27:49;0.43;;;0.43;;
39322;SDS011;25036;53.638;10.134;2023-11-19T01:28:50;0.55;;;0.55;;
39322;SDS011;25036;53.638;10.134;2023-11-19T01:29:52;0.70;;;0.70;;
39322;SDS011;25036;53.638;10.134;2023-11-19T01:30:52;0.70;;;0.63;;
39322;SDS011;25036;53.638;10.134;2023-11-19T01:31:53;0.98;;;0.52;;
39322;SDS011;25036;53.638;10.134;2023-11-19T01:32:53;0.93;;;0.53;;
39322;SDS011;25036;53.638;10.134;2023-11-19T01:33:53;0.67;;;0.53;;
39322;SDS011;25036;53.638;10.134;2023-11-19T01:34:53;0.70;;;0.70;;
39322;SDS011;25036;53.638;10.134;2023-11-19T01:35:53;0.40;;;0.40;;
39322;SDS011;25036;53.638;10.134;2023-11-19T01:36:53;0.70;;;0.70;;
39322;SDS011;25036;53.638;10.134;2023-11-19T01:37:53;0.47;;;0.47;;
39322;SDS011;25036;53.638;10.134;2023-11-19T01:38:54;0.50;;;0.50;;
39322;SDS011;25036;53.638;10.134;2023-11-19T01:39:54;0.80;;;0.50;;
39322;SDS011;25036;53.638;10.134;2023-11-19T01:40:55;2.20;;;0.43;;
39322;SDS011;25036;53.638;10.134;2023-11-19T01:41:56;0.57;;;0.57;;
39322;SDS011;25036;53.638;10.134;2023-11-19T01:42:56;0.50;;;0.50;;
39322;SDS011;25036;53.638;10.134;2023-11-19T01:43:56;0.57;;;0.57;;
39322;SDS011;25036;53.638;10.134;2023-11-19T01:44:59;0.40;;;0.40;;
39322;SDS011;25036;53.638;10.134;2023-11-19T01:46:00;0.38;;;0.38;;
39322;SDS011;25036;53.638;10.134;2023-11-19T01:47:01;0.40;;;0.40;;
39322;SDS011;25036;53.638;10.134;2023-11-19T01:48:02;0.38;;;0.38;;
39322;SDS011;25036;53.638;10.134;2023-11-19T01:49:04;0.30;;;0.30;;
39322;SDS011;25036;53.638;10.134;2023-11-19T01:50:06;0.55;;;0.40;;
39322;SDS011;25036;53.638;10.134;2023-11-19T01:51:06;0.40;;;0.40;;
39322;SDS011;25036;53.638;10.134;2023-11-19T01:52:07;0.40;;;0.40;;
39322;SDS011;25036;53.638;10.134;2023-11-19T01:53:08;0.57;;;0.40;;
39322;SDS011;25036;53.638;10.134;2023-11-19T01:54:08;0.20;;;0.20;;
39322;SDS011;25036;53.638;10.134;2023-11-19T01:55:08;0.45;;;0.45;;
39322;SDS011;25036;53.638;10.134;2023-11-19T01:56:09;0.30;;;0.30;;
39322;SDS011;25036;53.638;10.134;2023-11-19T01:57:11;0.32;;;0.32;;
39322;SDS011;25036;53.638;10.134;2023-11-19T01:58:12;0.82;;;0.50;;
39322;SDS011;25036;53.638;10.134;2023-11-19T01:59:12;0.33;;;0.30;;
39322;SDS011;25036;53.638;10.134;2023-11-19T02:00:16;0.30;;;0.30;;
39322;SDS011;25036;53.638;10.134;2023-11-19T02:01:16;0.32;;;0.30;;
39322;SDS011;25036;53.638;10.134;2023-11-19T02:02:16;0.38;;;0.38;;
39322;SDS011;25036;53.638;10.134;2023-11-19T02:03:20;1.50;;;0.40;;
39322;SDS011;25036;53.638;10.134;2023-11-19T02:04:21;0.35;;;0.35;;
39322;SDS011;25036;53.638;10.134;2023-11-19T02:05:22;0.38;;;0.38;;
39322;SDS011;25036;53.638;10.134;2023-11-19T02:06:23;0.20;;;0.20;;
39322;SDS011;25036;53.638;10.134;2023-11-19T02:07:23;0.55;;;0.30;;
39322;SDS011;25036;53.638;10.134;2023-11-19T02:08:24;0.40;;;0.30;;
39322;SDS011;25036;53.638;10.134;2023-11-19T02:09:24;0.50;;;0.40;;
39322;SDS011;25036;53.638;10.134;2023-11-19T02:10:24;0.43;;;0.40;;
39322;SDS011;25036;53.638;10.134;2023-11-19T02:11:25;0.40;;;0.30;;
39322;SDS011;25036;53.638;10.134;2023-11-19T02:12:29;0.30;;;0.30;;
39322;SDS011;25036;53.638;10.134;2023-11-19T02:13:29;0.22;;;0.22;;
39322;SDS011;25036;53.638;10.134;2023-11-19T02:14:29;0.73;;;0.38;;
39322;SDS011;25036;53.638;10.134;2023-11-19T02:15:30;0.32;;;0.30;;
39322;SDS011;25036;53.638;10.134;2023-11-19T02:16:31;0.85;;;0.30;;
39322;SDS011;25036;53.638;10.134;2023-11-19T02:17:31;0.30;;;0.30;;
39322;SDS011;25036;53.638;10.134;2023-11-19T02:18:31;0.75;;;0.40;;
39322;SDS011;25036;53.638;10.134;2023-11-19T02:19:32;0.30;;;0.30;;
39322;SDS011;25036;53.638;10.134;2023-11-19T02:20:33;0.55;;;0.35;;
39322;SDS011;25036;53.638;10.134;2023-11-19T02:21:33;0.20;;;0.20;;
39322;SDS011;25036;53.638;10.134;2023-11-19T02:22:33;0.73;;;0.28;;
39322;SDS011;25036;53.638;10.134;2023-11-19T02:23:34;0.20;;;0.20;;
39322;SDS011;25036;53.638;10.134;2023-11-19T02:24:34;0.38;;;0.20;;
39322;SDS011;25036;53.638;10.134;2023-11-19T02:25:34;0.10;;;0.10;;
39322;SDS011;25036;53.638;10.134;2023-11-19T02:26:37;0.28;;;0.28;;
39322;SDS011;25036;53.638;10.134;2023-11-19T02:28:48;0.10;;;0.10;;
39322;SDS011;25036;53.638;10.134;2023-11-19T02:29:48;0.20;;;0.17;;
39322;SDS011;25036;53.638;10.134;2023-11-19T02:30:48;0.32;;;0.20;;
39322;SDS011;25036;53.638;10.134;2023-11-19T02:31:48;1.10;;;0.10;;
39322;SDS011;25036;53.638;10.134;2023-11-19T02:32:49;0.10;;;0.10;;
39322;SDS011;25036;53.638;10.134;2023-11-19T02:33:49;0.20;;;0.20;;
39322;SDS011;25036;53.638;10.134;2023-11-19T02:34:50;0.55;;;0.10;;
39322;SDS011;25036;53.638;10.134;2023-11-19T02:35:50;0.30;;;0.15;;
39322;SDS011;25036;53.638;10.134;2023-11-19T02:36:51;0.17;;;0.17;;
39322;SDS011;25036;53.638;10.134;2023-11-19T02:37:51;0.20;;;0.20;;
39322;SDS011;25036;53.638;10.134;2023-11-19T02:38:51;0.32;;;0.20;;
39322;SDS011;25036;53.638;10.134;2023-11-19T02:39:52;0.20;;;0.20;;
39322;SDS011;25036;53.638;10.134;2023-11-19T02:40:52;0.13;;;0.10;;
39322;SDS011;25036;53.638;10.134;2023-11-19T02:41:52;0.10;;;0.10;;
39322;SDS011;25036;53.638;10.134;2023-11-19T02:42:53;0.40;;;0.13;;
39322;SDS011;25036;53.638;10.134;2023-11-19T02:43:54;0.20;;;0.20;;
39322;SDS011;25036;53.638;10.134;2023-11-19T02:44:54;0.17;;;0.17;;
39322;SDS011;25036;53.638;10.134;2023-11-19T02:45:54;0.10;;;0.10;;
39322;SDS011;25036;53.638;10.134;2023-11-19T02:46:55;0.22;;;0.22;;
39322;SDS011;25036;53.638;10.134;2023-11-19T02:47:59;0.10;;;0.10;;
39322;SDS011;25036;53.638;10.134;2023-11-19T02:49:01;0.10;;;0.10;;
39322;SDS011;25036;53.638;10.134;2023-11-19T02:50:01;0.08;;;0.08;;
39322;SDS011;25036;53.638;10.134;2023-11-19T02:51:02;0.20;;;0.20;;
39322;SDS011;25036;53.638;10.134;2023-11-19T02:52:09;0.10;;;0.05;;
39322;SDS011;25036;53.638;10.134;2023-11-19T02:53:10;0.20;;;0.20;;
39322;SDS011;25036;53.638;10.134;2023-11-19T02:54:10;0.27;;;0.27;;
39322;SDS011;25036;53.638;10.134;2023-11-19T02:55:10;0.10;;;0.10;;
39322;SDS011;25036;53.638;10.134;2023-11-19T02:56:12;0.30;;;0.20;;
39322;SDS011;25036;53.638;10.134;2023-11-19T02:57:20;0.43;;;0.20;;
39322;SDS011;25036;53.638;10.134;2023-11-19T02:58:20;0.22;;;0.13;;
39322;SDS011;25036;53.638;10.134;2023-11-19T02:59:23;0.17;;;0.17;;
39322;SDS011;25036;53.638;10.134;2023-11-19T03:00:39;0.10;;;0.10;;
39322;SDS011;25036;53.638;10.134;2023-11-19T03:01:47;0.10;;;0.10;;
39322;SDS011;25036;53.638;10.134;2023-11-19T03:02:53;0.20;;;0.20;;
39322;SDS011;25036;53.638;10.134;2023-11-19T03:04:00;0.20;;;0.20;;
39322;SDS011;25036;53.638;10.134;2023-11-19T03:05:01;0.10;;;0.10;;
39322;SDS011;25036;53.638;10.134;2023-11-19T03:06:01;0.20;;;0.20;;
39322;SDS011;25036;53.638;10.134;2023-11-19T03:07:05;1.65;;;0.20;;
39322;SDS011;25036;53.638;10.134;2023-11-19T03:08:05;0.20;;;0.20;;
39322;SDS011;25036;53.638;10.134;2023-11-19T03:09:05;1.42;;;0.20;;
39322;SDS011;25036;53.638;10.134;2023-11-19T03:10:10;0.30;;;0.10;;
39322;SDS011;25036;53.638;10.134;2023-11-19T03:11:13;0.35;;;0.30;;
39322;SDS011;25036;53.638;10.134;2023-11-19T03:12:13;0.30;;;0.20;;
39322;SDS011;25036;53.638;10.134;2023-11-19T03:13:13;0.10;;;0.10;;
39322;SDS011;25036;53.638;10.134;2023-11-19T03:14:14;0.47;;;0.20;;
39322;SDS011;25036;53.638;10.134;2023-11-19T03:15:14;0.20;;;0.20;;
39322;SDS011;25036;53.638;10.134;2023-11-19T03:16:14;0.20;;;0.20;;
39322;SDS011;25036;53.638;10.134;2023-11-19T03:17:14;0.30;;;0.30;;
39322;SDS011;25036;53.638;10.134;2023-11-19T03:18:14;0.33;;;0.30;;
39322;SDS011;25036;53.638;10.134;2023-11-19T03:19:15;0.63;;;0.32;;
39322;SDS011;25036;53.638;10.134;2023-11-19T03:20:15;0.45;;;0.43;;
39322;SDS011;25036;53.638;10.134;2023-11-19T03:21:16;0.20;;;0.20;;
39322;SDS011;25036;53.638;10.134;2023-11-19T03:22:17;0.20;;;0.20;;
39322;SDS011;25036;53.638;10.134;2023-11-19T03:23:17;0.30;;;0.17;;
39322;SDS011;25036;53.638;10.134;2023-11-19T03:24:17;0.30;;;0.20;;
39322;SDS011;25036;53.638;10.134;2023-11-19T03:25:17;0.20;;;0.20;;
39322;SDS011;25036;53.638;10.134;2023-11-19T03:26:18;0.50;;;0.50;;
39322;SDS011;25036;53.638;10.134;2023-11-19T03:27:18;0.30;;;0.30;;
39322;SDS011;25036;53.638;10.134;2023-11-19T03:28:18;1.13;;;0.40;;
39322;SDS011;25036;53.638;10.134;2023-11-19T03:29:18;0.57;;;0.30;;
39322;SDS011;25036;53.638;10.134;2023-11-19T03:30:18;0.23;;;0.23;;
39322;SDS011;25036;53.638;10.134;2023-11-19T03:31:18;0.25;;;0.20;;
39322;SDS011;25036;53.638;10.134;2023-11-19T03:32:19;0.20;;;0.20;;
39322;SDS011;25036;53.638;10.134;2023-11-19T03:33:19;0.20;;;0.20;;
39322;SDS011;25036;53.638;10.134;2023-11-19T03:34:20;0.57;;;0.30;;
39322;SDS011;25036;53.638;10.134;2023-11-19T03:35:20;0.30;;;0.20;;
39322;SDS011;25036;53.638;10.134;2023-11-19T03:36:20;1.02;;;0.30;;
39322;SDS011;25036;53.638;10.134;2023-11-19T03:37:20;0.40;;;0.30;;
39322;SDS011;25036;53.638;10.134;2023-11-19T03:38:20;0.40;;;0.40;;
39322;SDS011;25036;53.638;10.134;2023-11-19T03:39:21;0.40;;;0.23;;
39322;SDS011;25036;53.638;10.134;2023-11-19T03:40:24;1.00;;;0.40;;
39322;SDS011;25036;53.638;10.134;2023-11-19T03:41:25;0.30;;;0.30;;
39322;SDS011;25036;53.638;10.134;2023-11-19T03:42:28;0.20;;;0.20;;
39322;SDS011;25036;53.638;10.134;2023-11-19T03:43:30;0.50;;;0.30;;
39322;SDS011;25036;53.638;10.134;2023-11-19T03:44:31;0.60;;;0.47;;
39322;SDS011;25036;53.638;10.134;2023-11-19T03:45:31;0.50;;;0.30;;
39322;SDS011;25036;53.638;10.134;2023-11-19T03:46:31;0.50;;;0.50;;
39322;SDS011;25036;53.638;10.134;2023-11-19T03:47:31;0.30;;;0.30;;
39322;SDS011;25036;53.638;10.134;2023-11-19T03:48:31;0.40;;;0.30;;
39322;SDS011;25036;53.638;10.134;2023-11-19T03:49:31;0.30;;;0.30;;
39322;SDS011;25036;53.638;10.134;2023-11-19T03:50:32;0.47;;;0.40;;
39322;SDS011;25036;53.638;10.134;2023-11-19T03:51:32;0.30;;;0.30;;
39322;SDS011;25036;53.638;10.134;2023-11-19T03:52:34;0.50;;;0.50;;
39322;SDS011;25036;53.638;10.134;2023-11-19T03:53:34;0.50;;;0.50;;
39322;SDS011;25036;53.638;10.134;2023-11-19T03:54:35;0.32;;;0.32;;
39322;SDS011;25036;53.638;10.134;2023-11-19T03:55:35;0.47;;;0.40;;
39322;SDS011;25036;53.638;10.134;2023-11-19T03:56:35;0.40;;;0.40;;
39322;SDS011;25036;53.638;10.134;2023-11-19T03:57:35;0.30;;;0.30;;
39322;SDS011;25036;53.638;10.134;2023-11-19T03:58:36;0.33;;;0.33;;
39322;SDS011;25036;53.638;10.134;2023-11-19T03:59:36;0.93;;;0.50;;
39322;SDS011;25036;53.638;10.134;2023-11-19T04:00:36;0.45;;;0.45;;
39322;SDS011;25036;53.638;10.134;2023-11-19T04:01:36;0.53;;;0.40;;
39322;SDS011;25036;53.638;10.134;2023-11-19T04:02:37;0.30;;;0.30;;
39322;SDS011;25036;53.638;10.134;2023-11-19T04:03:37;0.20;;;0.20;;
39322;SDS011;25036;53.638;10.134;2023-11-19T04:04:37;0.30;;;0.30;;
39322;SDS011;25036;53.638;10.134;2023-11-19T04:05:38;0.40;;;0.40;;
39322;SDS011;25036;53.638;10.134;2023-11-19T04:06:39;0.30;;;0.30;;
39322;SDS011;25036;53.638;10.134;2023-11-19T04:07:39;0.57;;;0.57;;
39322;SDS011;25036;53.638;10.134;2023-11-19T04:08:39;0.60;;;0.40;;
39322;SDS011;25036;53.638;10.134;2023-11-19T04:09:39;1.03;;;0.50;;
39322;SDS011;25036;53.638;10.134;2023-11-19T04:10:39;1.10;;;0.50;;
39322;SDS011;25036;53.638;10.134;2023-11-19T04:11:40;0.40;;;0.40;;
39322;SDS011;25036;53.638;10.134;2023-11-19T04:12:40;1.10;;;0.53;;
39322;SDS011;25036;53.638;10.134;2023-11-19T04:13:40;0.80;;;0.80;;
39322;SDS011;25036;53.638;10.134;2023-11-19T04:14:40;0.50;;;0.50;;
39322;SDS011;25036;53.638;10.134;2023-11-19T04:15:40;0.73;;;0.73;;
39322;SDS011;25036;53.638;10.134;2023-11-19T04:16:41;0.50;;;0.50;;
39322;SDS011;25036;53.638;10.134;2023-11-19T04:17:41;0.68;;;0.45;;
39322;SDS011;25036;53.638;10.134;2023-11-19T04:18:41;0.47;;;0.47;;
39322;SDS011;25036;53.638;10.134;2023-11-19T04:19:41;0.60;;;0.60;;
39322;SDS011;25036;53.638;10.134;2023-11-19T04:20:41;0.50;;;0.50;;
39322;SDS011;25036;53.638;10.134;2023-11-19T04:21:42;0.50;;;0.50;;
39322;SDS011;25036;53.638;10.134;2023-11-19T04:22:42;0.57;;;0.57;;
39322;SDS011;25036;53.638;10.134;2023-11-19T04:23:42;0.73;;;0.70;;
39322;SDS011;25036;53.638;10.134;2023-11-19T04:24:42;0.80;;;0.67;;
39322;SDS011;25036;53.638;10.134;2023-11-19T04:25:45;1.05;;;0.60;;
39322;SDS011;25036;53.638;10.134;2023-11-19T04:26:45;0.80;;;0.70;;
39322;SDS011;25036;53.638;10.134;2023-11-19T04:27:46;0.85;;;0.52;;
39322;SDS011;25036;53.638;10.134;2023-11-19T04:28:47;0.60;;;0.55;;
39322;SDS011;25036;53.638;10.134;2023-11-19T04:29:49;0.82;;;0.60;;
39322;SDS011;25036;53.638;10.134;2023-11-19T04:30:50;0.45;;;0.43;;
39322;SDS011;25036;53.638;10.134;2023-11-19T04:31:50;0.40;;;0.40;;
39322;SDS011;25036;53.638;10.134;2023-11-19T04:32:51;0.50;;;0.50;;
39322;SDS011;25036;53.638;10.134;2023-11-19T04:33:51;0.30;;;0.30;;
39322;SDS011;25036;53.638;10.134;2023-11-19T04:34:52;0.70;;;0.52;;
39322;SDS011;25036;53.638;10.134;2023-11-19T04:35:52;0.80;;;0.50;;
39322;SDS011;25036;53.638;10.134;2023-11-19T04:36:52;0.53;;;0.53;;
39322;SDS011;25036;53.638;10.134;2023-11-19T04:37:52;0.70;;;0.60;;
39322;SDS011;25036;53.638;10.134;2023-11-19T04:38:52;0.50;;;0.50;;
39322;SDS011;25036;53.638;10.134;2023-11-19T04:39:52;1.13;;;0.70;;
39322;SDS011;25036;53.638;10.134;2023-11-19T04:40:53;0.60;;;0.60;;
39322;SDS011;25036;53.638;10.134;2023-11-19T04:41:53;0.50;;;0.50;;
39322;SDS011;25036;53.638;10.134;2023-11-19T04:42:53;0.63;;;0.63;;
39322;SDS011;25036;53.638;10.134;2023-11-19T04:43:56;0.90;;;0.60;;
39322;SDS011;25036;53.638;10.134;2023-11-19T04:44:56;0.73;;;0.57;;
39322;SDS011;25036;53.638;10.134;2023-11-19T04:45:56;0.40;;;0.40;;
39322;SDS011;25036;53.638;10.134;2023-11-19T04:46:57;1.17;;;0.85;;
39322;SDS011;25036;53.638;10.134;2023-11-19T04:47:58;0.70;;;0.70;;
39322;SDS011;25036;53.638;10.134;2023-11-19T04:48:58;0.98;;;0.80;;
39322;SDS011;25036;53.638;10.134;2023-11-19T04:49:58;0.63;;;0.63;;
39322;SDS011;25036;53.638;10.134;2023-11-19T04:50:59;0.60;;;0.60;;
39322;SDS011;25036;53.638;10.134;2023-11-19T04:51:59;1.00;;;0.90;;
39322;SDS011;25036;53.638;10.134;2023-11-19T04:52:59;1.30;;;1.20;;
39322;SDS011;25036;53.638;10.134;2023-11-19T04:53:59;1.15;;;1.02;;
39322;SDS011;25036;53.638;10.134;2023-11-19T04:54:59;0.77;;;0.77;;
39322;SDS011;25036;53.638;10.134;2023-11-19T04:55:59;1.20;;;0.80;;
39322;SDS011;25036;53.638;10.134;2023-11-19T04:57:00;1.10;;;0.90;;
39322;SDS011;25036;53.638;10.134;2023-11-19T04:58:00;1.58;;;1.33;;
39322;SDS011;25036;53.638;10.134;2023-11-19T04:59:00;1.50;;;1.10;;
39322;SDS011;25036;53.638;10.134;2023-11-19T05:00:00;1.00;;;0.70;;
39322;SDS011;25036;53.638;10.134;2023-11-19T05:01:00;2.67;;;0.98;;
39322;SDS011;25036;53.638;10.134;2023-11-19T05:02:00;1.08;;;0.95;;
39322;SDS011;25036;53.638;10.134;2023-11-19T05:03:00;1.40;;;1.30;;
39322;SDS011;25036;53.638;10.134;2023-11-19T05:04:01;3.78;;;1.90;;
39322;SDS011;25036;53.638;10.134;2023-11-19T05:05:02;1.40;;;1.20;;
39322;SDS011;25036;53.638;10.134;2023-11-19T05:06:04;1.33;;;1.23;;
39322;SDS011;25036;53.638;10.134;2023-11-19T05:07:04;1.58;;;1.00;;
39322;SDS011;25036;53.638;10.134;2023-11-19T05:08:04;0.95;;;0.90;;
39322;SDS011;25036;53.638;10.134;2023-11-19T05:09:05;2.78;;;2.33;;
39322;SDS011;25036;53.638;10.134;2023-11-19T05:10:07;2.30;;;2.10;;
39322;SDS011;25036;53.638;10.134;2023-11-19T05:11:08;2.03;;;1.77;;
39322;SDS011;25036;53.638;10.134;2023-11-19T05:12:11;1.42;;;1.33;;
39322;SDS011;25036;53.638;10.134;2023-11-19T05:13:12;1.20;;;1.10;;
39322;SDS011;25036;53.638;10.134;2023-11-19T05:14:12;1.20;;;1.10;;
39322;SDS011;25036;53.638;10.134;2023-11-19T05:15:13;1.40;;;1.30;;
39322;SDS011;25036;53.638;10.134;2023-11-19T05:16:14;1.60;;;1.40;;
39322;SDS011;25036;53.638;10.134;2023-11-19T05:17:15;2.20;;;2.00;;
39322;SDS011;25036;53.638;10.134;2023-11-19T05:18:15;2.65;;;2.30;;
39322;SDS011;25036;53.638;10.134;2023-11-19T05:19:15;3.43;;;2.77;;
39322;SDS011;25036;53.638;10.134;2023-11-19T05:20:15;4.32;;;3.38;;
39322;SDS011;25036;53.638;10.134;2023-11-19T05:21:16;3.45;;;2.90;;
39322;SDS011;25036;53.638;10.134;2023-11-19T05:22:17;3.38;;;2.55;;
39322;SDS011;25036;53.638;10.134;2023-11-19T05:23:17;3.47;;;2.60;;
39322;SDS011;25036;53.638;10.134;2023-11-19T05:24:17;2.47;;;2.27;;
39322;SDS011;25036;53.638;10.134;2023-11-19T05:25:17;3.03;;;2.40;;
39322;SDS011;25036;53.638;10.134;2023-11-19T05:26:20;2.72;;;2.53;;
39322;SDS011;25036;53.638;10.134;2023-11-19T05:27:21;3.20;;;2.70;;
39322;SDS011;25036;53.638;10.134;2023-11-19T05:28:21;3.05;;;2.35;;
39322;SDS011;25036;53.638;10.134;2023-11-19T05:29:24;2.22;;;2.00;;
39322;SDS011;25036;53.638;10.134;2023-11-19T05:30:24;2.67;;;2.47;;
39322;SDS011;25036;53.638;10.134;2023-11-19T05:31:24;3.42;;;3.00;;
39322;SDS011;25036;53.638;10.134;2023-11-19T05:32:25;3.13;;;2.80;;
39322;SDS011;25036;53.638;10.134;2023-11-19T05:33:25;3.30;;;3.00;;
39322;SDS011;25036;53.638;10.134;2023-11-19T05:34:27;2.95;;;2.65;;
39322;SDS011;25036;53.638;10.134;2023-11-19T05:35:27;2.97;;;2.72;;
39322;SDS011;25036;53.638;10.134;2023-11-19T05:36:27;3.13;;;2.60;;
39322;SDS011;25036;53.638;10.134;2023-11-19T05:37:28;3.00;;;2.67;;
39322;SDS011;25036;53.638;10.134;2023-11-19T05:38:29;2.93;;;2.73;;
39322;SDS011;25036;53.638;10.134;2023-11-19T05:39:29;3.17;;;2.60;;
39322;SDS011;25036;53.638;10.134;2023-11-19T05:40:29;6.07;;;3.00;;
39322;SDS011;25036;53.638;10.134;2023-11-19T05:41:29;3.20;;;2.90;;
39322;SDS011;25036;53.638;10.134;2023-11-19T05:42:29;2.93;;;2.53;;
39322;SDS011;25036;53.638;10.134;2023-11-19T05:43:30;3.57;;;3.27;;
39322;SDS011;25036;53.638;10.134;2023-11-19T05:44:30;5.15;;;2.90;;
39322;SDS011;25036;53.638;10.134;2023-11-19T05:45:31;3.20;;;2.90;;
39322;SDS011;25036;53.638;10.134;2023-11-19T05:46:32;3.20;;;2.90;;
39322;SDS011;25036;53.638;10.134;2023-11-19T05:47:32;3.40;;;2.65;;
39322;SDS011;25036;53.638;10.134;2023-11-19T05:48:32;4.33;;;3.07;;
39322;SDS011;25036;53.638;10.134;2023-11-19T05:49:33;4.32;;;2.90;;
39322;SDS011;25036;53.638;10.134;2023-11-19T05:50:33;3.13;;;2.90;;
39322;SDS011;25036;53.638;10.134;2023-11-19T05:51:36;3.88;;;2.95;;
39322;SDS011;25036;53.638;10.134;2023-11-19T05:52:36;3.45;;;2.63;;
39322;SDS011;25036;53.638;10.134;2023-11-19T05:53:36;4.53;;;3.47;;
39322;SDS011;25036;53.638;10.134;2023-11-19T05:54:36;3.13;;;2.90;;
39322;SDS011;25036;53.638;10.134;2023-11-19T05:55:37;3.38;;;2.97;;
39322;SDS011;25036;53.638;10.134;2023-11-19T05:56:47;5.40;;;3.72;;
39322;SDS011;25036;53.638;10.134;2023-11-19T05:57:48;4.70;;;3.20;;
39322;SDS011;25036;53.638;10.134;2023-11-19T05:58:48;3.77;;;3.43;;
39322;SDS011;25036;53.638;10.134;2023-11-19T05:59:49;3.50;;;3.20;;
39322;SDS011;25036;53.638;10.134;2023-11-19T06:00:49;3.70;;;3.33;;
39322;SDS011;25036;53.638;10.134;2023-11-19T06:01:50;3.58;;;3.05;;